Time;durP1;ratioP1;P1;durP2;ratioP2;P2;SDS_P1;SDS_P2;PMS_P1;PMS_P2;Temp;Humidity;BMP_temperature;BMP_pressure;BME280_temperature;BME280_humidity;BME280_pressure;Samples;Min_cycle;Max_cycle;Signal;HPM_P1;HPM_P2
2022/08/09 00:00:11;;;;;;;1.70;1.60;;;22.00;70.00;;;;;;4957249;29;20027;-43
2022/08/09 00:02:37;;;;;;;4.63;1.77;;;22.00;70.20;;;;;;4956812;29;20038;-45
2022/08/09 00:05:02;;;;;;;2.17;1.70;;;22.00;70.20;;;;;;4957120;29;20433;-45
2022/08/09 00:07:28;;;;;;;1.77;1.33;;;21.90;70.30;;;;;;4957169;28;20034;-43
2022/08/09 00:09:53;;;;;;;2.15;1.67;;;22.00;70.30;;;;;;4957088;29;20046;-44
2022/08/09 00:12:19;;;;;;;6.15;1.92;;;22.00;70.40;;;;;;4956534;29;20073;-45
2022/08/09 00:14:44;;;;;;;3.30;1.58;;;21.90;70.50;;;;;;4957081;29;20389;-43
2022/08/09 00:17:10;;;;;;;1.70;1.60;;;21.90;70.40;;;;;;4957032;29;20504;-45
2022/08/09 00:19:35;;;;;;;3.67;1.52;;;21.90;70.70;;;;;;4957039;29;20031;-45
2022/08/09 00:22:02;;;;;;;2.20;1.70;;;21.90;70.60;;;;;;4956430;29;20240;-48
2022/08/09 00:24:30;;;;;;;3.75;1.63;;;21.80;70.80;;;;;;4956698;29;20031;-45
2022/08/09 00:26:56;;;;;;;3.88;1.67;;;21.80;71.10;;;;;;4956743;28;20110;-47
2022/08/09 00:29:22;;;;;;;4.60;1.90;;;21.80;71.00;;;;;;4956513;29;20046;-48
2022/08/09 00:31:47;;;;;;;4.20;1.65;;;21.70;71.30;;;;;;4956688;29;20023;-45
2022/08/09 00:34:13;;;;;;;1.83;1.55;;;21.70;71.40;;;;;;4956342;29;20023;-45
2022/08/09 00:36:38;;;;;;;4.07;1.77;;;21.70;71.50;;;;;;4956504;29;20023;-45
2022/08/09 00:39:04;;;;;;;3.67;1.88;;;21.60;71.50;;;;;;4956304;29;20031;-46
2022/08/09 00:41:29;;;;;;;4.15;1.55;;;21.60;71.80;;;;;;4956362;29;20046;-47
2022/08/09 00:43:55;;;;;;;5.00;2.00;;;21.50;71.90;;;;;;4956053;29;20035;-42
2022/08/09 00:46:20;;;;;;;2.17;1.83;;;21.50;71.90;;;;;;4956281;29;20485;-46
2022/08/09 00:48:46;;;;;;;2.25;1.52;;;21.40;72.10;;;;;;4956177;29;20038;-45
2022/08/09 00:51:16;;;;;;;1.73;1.60;;;21.40;72.30;;;;;;4955621;29;20086;-46
2022/08/09 00:53:42;;;;;;;2.17;1.60;;;21.30;72.30;;;;;;4955814;29;20023;-47
2022/08/09 00:56:08;;;;;;;4.43;2.83;;;21.30;72.50;;;;;;4956099;29;20035;-44
2022/08/09 00:58:34;;;;;;;4.20;1.85;;;21.30;72.60;;;;;;4956209;29;20443;-47
2022/08/09 01:01:05;;;;;;;3.20;1.92;;;21.30;72.70;;;;;;4955804;28;20046;-45
2022/08/09 01:03:45;;;;;;;1.80;1.67;;;21.30;72.80;;;;;;4955847;28;20027;-47
2022/08/09 01:06:29;;;;;;;9.88;1.80;;;21.30;73.00;;;;;;4956145;29;20028;-43
2022/08/09 01:08:54;;;;;;;4.35;1.80;;;21.20;72.80;;;;;;4956113;29;20118;-42
2022/08/09 01:11:29;;;;;;;2.22;1.67;;;21.20;72.90;;;;;;4955900;29;20103;-45
2022/08/09 01:14:01;;;;;;;5.97;1.80;;;21.20;73.00;;;;;;4955878;29;20111;-43
2022/08/09 01:16:33;;;;;;;2.95;1.85;;;21.10;73.10;;;;;;4955887;29;20105;-44
2022/08/09 01:19:10;;;;;;;4.95;1.98;;;21.10;73.30;;;;;;4955797;29;20090;-44
2022/08/09 01:21:50;;;;;;;4.07;2.13;;;21.00;73.30;;;;;;4955813;28;20026;-43
2022/08/09 01:24:36;;;;;;;3.72;1.98;;;21.00;73.50;;;;;;4955640;29;20042;-44
2022/08/09 01:27:06;;;;;;;1.90;1.73;;;21.00;73.60;;;;;;4955699;29;20468;-44
2022/08/09 01:29:53;;;;;;;16.38;2.13;;;20.90;74.00;;;;;;4955630;28;20035;-44
2022/08/09 01:32:21;;;;;;;4.35;1.80;;;20.90;74.00;;;;;;4955690;28;20051;-43
2022/08/09 01:34:49;;;;;;;5.53;2.67;;;20.90;74.00;;;;;;4955574;28;20072;-44
2022/08/09 01:37:16;;;;;;;6.28;1.75;;;20.90;74.10;;;;;;4955432;29;20114;-44
2022/08/09 01:39:45;;;;;;;5.07;1.98;;;20.90;74.10;;;;;;4955356;29;20469;-44
2022/08/09 01:42:10;;;;;;;2.45;1.95;;;20.80;73.90;;;;;;4955569;29;20049;-46
2022/08/09 01:44:38;;;;;;;6.00;1.83;;;20.80;74.20;;;;;;4955403;29;20118;-46
2022/08/09 01:47:05;;;;;;;8.18;2.10;;;20.80;74.20;;;;;;4955620;28;20499;-44
2022/08/09 01:49:35;;;;;;;2.17;1.92;;;20.80;74.30;;;;;;4954778;29;20089;-44
2022/08/09 01:52:04;;;;;;;5.10;2.17;;;20.70;74.20;;;;;;4955002;28;20023;-43
2022/08/09 01:54:35;;;;;;;5.10;2.05;;;20.70;74.40;;;;;;4955213;28;20027;-44
2022/08/09 01:57:07;;;;;;;5.97;2.25;;;20.70;74.40;;;;;;4955361;29;20481;-44
2022/08/09 01:59:36;;;;;;;9.18;2.03;;;20.60;74.40;;;;;;4955171;29;20499;-44
2022/08/09 02:02:02;;;;;;;5.75;1.95;;;20.60;74.30;;;;;;4954645;28;20027;-47
2022/08/09 02:04:31;;;;;;;5.50;1.88;;;20.60;74.50;;;;;;4955172;28;20031;-48
2022/08/09 02:07:14;;;;;;;6.20;2.17;;;20.60;74.50;;;;;;4954915;28;20028;-48
2022/08/09 02:09:49;;;;;;;4.38;1.92;;;20.60;74.30;;;;;;4954822;28;20035;-48
2022/08/09 02:12:17;;;;;;;4.10;2.05;;;20.60;74.70;;;;;;4954337;29;20020;-42
2022/08/09 02:14:46;;;;;;;4.20;1.80;;;20.60;74.50;;;;;;4954196;28;20043;-41
2022/08/09 02:17:12;;;;;;;4.22;2.30;;;20.50;74.60;;;;;;4954750;29;20102;-45
2022/08/09 02:19:38;;;;;;;4.07;1.63;;;20.50;74.80;;;;;;4954763;28;20039;-43
2022/08/09 02:22:10;;;;;;;2.22;2.00;;;20.40;74.90;;;;;;4954808;29;20436;-42
2022/08/09 02:24:39;;;;;;;3.80;2.20;;;20.40;75.00;;;;;;4954614;28;20507;-41
2022/08/09 02:27:07;;;;;;;3.80;2.05;;;20.40;75.20;;;;;;4954532;29;20027;-44
2022/08/09 02:29:39;;;;;;;6.88;2.17;;;20.40;75.20;;;;;;4954271;28;20093;-43
2022/08/09 02:32:08;;;;;;;7.65;2.00;;;20.40;75.20;;;;;;4954044;28;20090;-43
2022/08/09 02:34:35;;;;;;;4.47;2.00;;;20.30;75.40;;;;;;4954352;28;20023;-46
2022/08/09 02:37:05;;;;;;;3.80;2.05;;;20.30;75.60;;;;;;4954394;29;20029;-42
2022/08/09 02:39:36;;;;;;;3.58;2.05;;;20.30;75.60;;;;;;4953970;28;20055;-42
2022/08/09 02:42:11;;;;;;;2.33;1.90;;;20.30;75.80;;;;;;4953975;29;20027;-46
2022/08/09 02:44:41;;;;;;;2.65;1.90;;;20.30;75.70;;;;;;4954575;28;20039;-49
2022/08/09 02:47:10;;;;;;;4.55;2.20;;;20.30;75.90;;;;;;4954269;29;20031;-44
2022/08/09 02:49:44;;;;;;;2.35;1.98;;;20.30;76.00;;;;;;4953812;29;20035;-43
2022/08/09 02:52:14;;;;;;;7.82;2.15;;;20.30;76.10;;;;;;4953918;29;20051;-45
2022/08/09 02:54:41;;;;;;;2.40;1.77;;;20.20;76.30;;;;;;4954215;28;20078;-48
2022/08/09 02:57:08;;;;;;;8.07;2.42;;;20.20;76.50;;;;;;4954161;29;20370;-46
2022/08/09 02:59:35;;;;;;;3.50;2.15;;;20.10;76.50;;;;;;4953964;28;20460;-46
2022/08/09 03:02:03;;;;;;;4.28;2.22;;;20.10;76.80;;;;;;4953598;28;20066;-45
2022/08/09 03:04:30;;;;;;;2.40;2.20;;;20.10;76.80;;;;;;4953876;29;20082;-46
2022/08/09 03:06:58;;;;;;;2.95;1.95;;;20.10;77.00;;;;;;4953924;28;20463;-46
2022/08/09 03:09:24;;;;;;;2.88;2.17;;;20.00;77.20;;;;;;4954021;29;20032;-45
2022/08/09 03:11:50;;;;;;;4.05;2.00;;;20.00;77.40;;;;;;4953816;29;20446;-46
2022/08/09 03:14:19;;;;;;;4.70;2.47;;;20.00;77.60;;;;;;4953670;29;20400;-44
2022/08/09 03:16:46;;;;;;;1.90;1.80;;;19.90;77.70;;;;;;4953849;29;20027;-45
2022/08/09 03:19:15;;;;;;;3.55;1.98;;;19.90;78.00;;;;;;4953758;29;20038;-43
2022/08/09 03:21:43;;;;;;;10.60;2.95;;;19.80;78.10;;;;;;4953753;29;20031;-45
2022/08/09 03:24:08;;;;;;;3.92;2.08;;;19.80;78.40;;;;;;4953437;28;20023;-44
2022/08/09 03:26:36;;;;;;;3.72;2.35;;;19.80;78.50;;;;;;4952754;28;20455;-46
2022/08/09 03:29:01;;;;;;;3.25;2.15;;;19.70;78.70;;;;;;4953345;29;20408;-47
2022/08/09 03:31:27;;;;;;;5.07;2.47;;;19.70;78.80;;;;;;4953714;28;20027;-44
2022/08/09 03:33:54;;;;;;;12.07;2.40;;;19.70;79.00;;;;;;4953252;29;20031;-47
2022/08/09 03:36:20;;;;;;;3.33;2.60;;;19.70;79.40;;;;;;4953896;28;20027;-46
2022/08/09 03:38:45;;;;;;;3.88;2.58;;;19.60;79.50;;;;;;4953259;29;20374;-45
2022/08/09 03:41:13;;;;;;;7.30;2.47;;;19.60;79.70;;;;;;4953470;29;20071;-45
2022/08/09 03:43:39;;;;;;;3.72;2.90;;;19.60;79.90;;;;;;4953142;29;20176;-45
2022/08/09 03:46:04;;;;;;;2.75;2.53;;;19.50;80.10;;;;;;4953448;29;20063;-44
2022/08/09 03:48:32;;;;;;;7.90;2.08;;;19.50;80.50;;;;;;4953593;29;20086;-45
2022/08/09 03:50:59;;;;;;;4.15;2.63;;;19.40;80.60;;;;;;4952987;29;20027;-45
2022/08/09 03:53:25;;;;;;;5.80;3.17;;;19.50;80.90;;;;;;4953142;29;20031;-44
2022/08/09 03:55:51;;;;;;;2.75;2.20;;;19.40;81.00;;;;;;4953264;28;20362;-46
2022/08/09 03:58:17;;;;;;;5.88;2.60;;;19.40;81.10;;;;;;4953226;29;20027;-43
2022/08/09 04:00:47;;;;;;;4.20;2.45;;;19.40;81.40;;;;;;4953207;28;20381;-43
2022/08/09 04:03:14;;;;;;;5.80;2.60;;;19.30;81.50;;;;;;4953186;29;20458;-42
2022/08/09 04:05:39;;;;;;;7.47;2.88;;;19.30;81.80;;;;;;4953074;29;20074;-43
2022/08/09 04:08:05;;;;;;;2.63;2.42;;;19.30;81.80;;;;;;4953137;29;20027;-42
2022/08/09 04:10:30;;;;;;;2.42;2.22;;;19.20;82.30;;;;;;4952977;29;20027;-42
2022/08/09 04:12:58;;;;;;;11.63;2.55;;;19.20;82.20;;;;;;4952775;29;20023;-43
2022/08/09 04:15:24;;;;;;;5.57;2.92;;;19.20;82.50;;;;;;4951813;28;20086;-43
2022/08/09 04:17:50;;;;;;;3.25;2.38;;;19.20;82.60;;;;;;4953079;29;20039;-41
2022/08/09 04:20:16;;;;;;;2.60;2.17;;;19.20;82.80;;;;;;4952986;29;20433;-43
2022/08/09 04:22:43;;;;;;;6.80;2.78;;;19.10;82.90;;;;;;4952456;28;20039;-44
2022/08/09 04:25:09;;;;;;;4.85;2.78;;;19.10;83.20;;;;;;4953153;28;20032;-46
2022/08/09 04:27:40;;;;;;;3.30;2.70;;;19.10;83.40;;;;;;4952999;29;20089;-45
2022/08/09 04:30:11;;;;;;;2.35;2.15;;;19.10;83.40;;;;;;4952923;28;20514;-41
2022/08/09 04:32:37;;;;;;;3.60;2.53;;;19.20;83.60;;;;;;4952613;29;20031;-43
2022/08/09 04:35:03;;;;;;;6.40;2.75;;;19.20;83.60;;;;;;4952894;29;20030;-43
2022/08/09 04:37:28;;;;;;;3.58;2.38;;;19.10;83.80;;;;;;4954703;28;20025;-44
2022/08/09 04:39:54;;;;;;;5.95;2.80;;;19.10;83.80;;;;;;4956335;29;20039;-44
2022/08/09 04:42:19;;;;;;;3.25;2.50;;;19.20;83.90;;;;;;4956117;29;20393;-42
2022/08/09 04:44:45;;;;;;;5.40;3.17;;;19.10;83.90;;;;;;4957498;29;20082;-46
2022/08/09 04:47:10;;;;;;;3.70;2.45;;;19.20;84.00;;;;;;4956424;29;20039;-43
2022/08/09 04:49:36;;;;;;;3.38;2.78;;;19.20;84.00;;;;;;4955796;29;20031;-43
2022/08/09 04:52:05;;;;;;;4.03;2.22;;;19.20;84.00;;;;;;4955898;28;20023;-42
2022/08/09 04:54:31;;;;;;;13.13;2.65;;;19.30;83.90;;;;;;4956258;28;20057;-47
2022/08/09 04:56:57;;;;;;;3.17;2.70;;;19.50;83.50;;;;;;4956160;29;20110;-44
2022/08/09 04:59:23;;;;;;;2.78;2.50;;;19.70;82.90;;;;;;4956249;28;20024;-45
2022/08/09 05:01:49;;;;;;;9.60;2.30;;;20.10;82.00;;;;;;4956297;29;20039;-45
2022/08/09 05:04:14;;;;;;;4.40;2.90;;;20.40;80.80;;;;;;4955921;29;20042;-43
2022/08/09 05:06:40;;;;;;;3.38;2.47;;;20.90;79.50;;;;;;4956174;29;20035;-45
2022/08/09 05:09:05;;;;;;;4.75;2.60;;;21.20;78.60;;;;;;4955974;29;20027;-46
2022/08/09 05:11:31;;;;;;;3.15;2.70;;;21.50;77.60;;;;;;4955895;29;20059;-48
2022/08/09 05:13:56;;;;;;;4.18;3.17;;;21.80;76.80;;;;;;4955673;29;20110;-44
2022/08/09 05:16:22;;;;;;;4.22;2.30;;;21.90;76.20;;;;;;4955687;29;20086;-43
2022/08/09 05:18:47;;;;;;;2.58;2.38;;;22.20;75.70;;;;;;4955679;29;20042;-43
2022/08/09 05:21:13;;;;;;;5.90;2.65;;;22.40;75.20;;;;;;4955768;29;20038;-45
2022/08/09 05:23:39;;;;;;;6.35;2.38;;;22.70;74.50;;;;;;4955444;29;20153;-47
2022/08/09 05:26:05;;;;;;;5.20;2.67;;;23.10;73.80;;;;;;4955634;29;20110;-45
2022/08/09 05:28:30;;;;;;;5.47;2.20;;;23.30;72.60;;;;;;4955601;28;20023;-44
2022/08/09 05:30:56;;;;;;;6.03;2.50;;;23.40;72.50;;;;;;4955380;29;20034;-45
2022/08/09 05:33:21;;;;;;;4.53;2.88;;;23.40;72.50;;;;;;4955336;29;20026;-44
2022/08/09 05:35:47;;;;;;;4.13;2.80;;;23.70;71.80;;;;;;4955435;29;20023;-42
2022/08/09 05:38:12;;;;;;;2.30;2.10;;;23.80;71.50;;;;;;4955542;29;20424;-47
2022/08/09 05:40:38;;;;;;;3.35;2.30;;;24.30;70.70;;;;;;4952284;28;20036;-47
2022/08/09 05:43:06;;;;;;;4.03;2.20;;;24.70;70.00;;;;;;4941595;28;20115;-45
2022/08/09 05:45:31;;;;;;;7.80;4.10;;;25.00;69.10;;;;;;4936157;29;20034;-47
2022/08/09 05:47:57;;;;;;;4.65;2.63;;;25.00;68.90;;;;;;4935611;29;20356;-46
2022/08/09 05:50:24;;;;;;;6.35;2.50;;;25.50;68.00;;;;;;4939235;28;20114;-49
2022/08/09 05:52:50;;;;;;;4.45;2.60;;;25.90;67.80;;;;;;4935969;29;20039;-47
2022/08/09 05:55:16;;;;;;;7.60;2.40;;;26.10;66.70;;;;;;4947950;29;20019;-45
2022/08/09 05:57:41;;;;;;;2.50;2.30;;;26.10;66.60;;;;;;4950580;28;20166;-47
2022/08/09 06:00:08;;;;;;;4.32;2.60;;;25.90;66.80;;;;;;4950045;28;20400;-46
2022/08/09 06:02:34;;;;;;;7.47;3.03;;;25.90;66.90;;;;;;4943722;28;20489;-44
2022/08/09 06:05:01;;;;;;;8.52;2.58;;;25.90;66.60;;;;;;4943374;28;20035;-49
2022/08/09 06:07:28;;;;;;;3.88;2.10;;;25.80;66.30;;;;;;4947399;29;20110;-47
2022/08/09 06:09:53;;;;;;;4.30;2.35;;;25.70;67.10;;;;;;4963594;28;20035;-46
2022/08/09 06:12:19;;;;;;;10.52;2.22;;;26.00;66.20;;;;;;4947495;28;20035;-47
2022/08/09 06:14:44;;;;;;;2.63;2.17;;;26.20;66.10;;;;;;4935584;29;20035;-46
2022/08/09 06:17:10;;;;;;;4.15;1.98;;;26.30;65.60;;;;;;4935458;29;20028;-46
2022/08/09 06:19:36;;;;;;;4.65;2.00;;;26.30;64.80;;;;;;4935213;29;20055;-48
2022/08/09 06:22:02;;;;;;;2.20;1.85;;;26.00;65.40;;;;;;4935421;29;20027;-45
2022/08/09 06:24:27;;;;;;;3.13;2.13;;;25.80;65.60;;;;;;4935186;29;20032;-47
2022/08/09 06:26:53;;;;;;;7.03;2.45;;;26.00;65.50;;;;;;4935381;29;20023;-46
2022/08/09 06:29:18;;;;;;;8.30;2.08;;;26.10;65.40;;;;;;4935329;29;20465;-45
2022/08/09 06:31:44;;;;;;;6.40;2.33;;;26.10;65.00;;;;;;4935197;29;20023;-44
2022/08/09 06:34:09;;;;;;;3.83;1.95;;;26.40;65.10;;;;;;4935153;29;20032;-44
2022/08/09 06:36:36;;;;;;;5.85;2.10;;;26.70;64.20;;;;;;4935228;29;20023;-49
2022/08/09 06:39:02;;;;;;;7.45;2.13;;;26.60;63.80;;;;;;4935030;29;20039;-47
2022/08/09 06:41:28;;;;;;;5.30;2.20;;;26.90;63.60;;;;;;4935049;29;20032;-46
2022/08/09 06:43:53;;;;;;;6.43;2.20;;;26.90;63.10;;;;;;4934851;29;20020;-49
2022/08/09 06:46:19;;;;;;;3.30;2.00;;;27.10;63.10;;;;;;4935388;29;20090;-49
2022/08/09 06:48:44;;;;;;;4.57;1.95;;;27.30;62.60;;;;;;4934943;29;20193;-46
2022/08/09 06:51:10;;;;;;;5.00;2.55;;;27.50;62.20;;;;;;4935056;29;20027;-46
2022/08/09 06:53:36;;;;;;;7.28;2.75;;;28.00;62.30;;;;;;4934703;29;20034;-44
2022/08/09 06:56:02;;;;;;;4.50;2.15;;;28.30;61.60;;;;;;4934865;29;20027;-45
2022/08/09 06:58:29;;;;;;;7.35;1.90;;;28.70;61.30;;;;;;4934840;29;20054;-47
2022/08/09 07:00:54;;;;;;;2.60;2.13;;;29.00;60.40;;;;;;4934456;29;20508;-44
2022/08/09 07:03:22;;;;;;;3.25;2.30;;;29.00;60.30;;;;;;4934466;29;20099;-46
2022/08/09 07:05:47;;;;;;;2.60;2.25;;;29.60;59.70;;;;;;4934631;29;20108;-45
2022/08/09 07:08:13;;;;;;;1.88;1.75;;;29.70;59.20;;;;;;4934957;29;20674;-44
2022/08/09 07:10:39;;;;;;;6.65;1.98;;;30.10;58.70;;;;;;4934587;29;20040;-48
2022/08/09 07:13:04;;;;;;;2.65;1.85;;;30.30;57.70;;;;;;4934523;29;20393;-47
2022/08/09 07:15:30;;;;;;;2.97;1.95;;;30.20;58.00;;;;;;4934805;29;20425;-44
2022/08/09 07:17:56;;;;;;;4.20;1.55;;;30.20;57.80;;;;;;4934541;29;20039;-49
2022/08/09 07:20:22;;;;;;;4.15;1.98;;;30.00;57.90;;;;;;4934541;29;20063;-46
2022/08/09 07:22:48;;;;;;;6.93;1.70;;;29.90;58.10;;;;;;4933598;29;20032;-45
2022/08/09 07:25:13;;;;;;;7.55;1.90;;;30.40;57.70;;;;;;4934728;29;20031;-46
2022/08/09 07:27:40;;;;;;;3.08;1.75;;;30.80;56.60;;;;;;4934523;29;20524;-45
2022/08/09 07:30:06;;;;;;;2.22;1.58;;;30.90;56.50;;;;;;4943748;29;20077;-46
2022/08/09 07:32:32;;;;;;;3.45;1.83;;;31.00;56.60;;;;;;4938694;28;20048;-52
2022/08/09 07:34:57;;;;;;;4.95;1.88;;;30.90;56.60;;;;;;4953153;28;20061;-47
2022/08/09 07:37:23;;;;;;;1.52;1.42;;;31.30;56.20;;;;;;4953406;29;20027;-47
2022/08/09 07:39:48;;;;;;;2.40;1.58;;;31.40;55.50;;;;;;4948546;29;20039;-45
2022/08/09 07:42:14;;;;;;;6.90;1.90;;;31.10;55.40;;;;;;4944357;28;20515;-45
2022/08/09 07:44:40;;;;;;;3.22;1.90;;;31.50;55.30;;;;;;4934115;29;20043;-45
2022/08/09 07:47:06;;;;;;;5.70;1.75;;;31.70;55.80;;;;;;4941858;29;20132;-45
2022/08/09 07:49:31;;;;;;;5.55;1.90;;;31.90;54.30;;;;;;4945076;29;20066;-46
2022/08/09 07:51:57;;;;;;;4.68;1.70;;;31.60;55.10;;;;;;4935195;28;20024;-45
2022/08/09 07:54:24;;;;;;;6.57;1.35;;;31.70;55.20;;;;;;4942178;28;20548;-52
2022/08/09 07:56:50;;;;;;;3.47;1.50;;;31.50;54.80;;;;;;4955800;28;20489;-48
2022/08/09 07:59:21;;;;;;;5.80;1.70;;;31.10;55.40;;;;;;4941075;28;20069;-46
2022/08/09 08:01:47;;;;;;;8.00;1.80;;;31.00;56.00;;;;;;4933970;29;20031;-47
2022/08/09 08:04:12;;;;;;;3.38;2.13;;;31.60;55.30;;;;;;4953262;29;20032;-45
2022/08/09 08:06:38;;;;;;;6.10;1.65;;;32.20;54.50;;;;;;4953243;28;20042;-48
2022/08/09 08:09:03;;;;;;;2.63;1.50;;;31.90;54.60;;;;;;4953024;28;20035;-45
2022/08/09 08:11:29;;;;;;;4.55;1.83;;;32.00;54.20;;;;;;4953716;28;20118;-48
2022/08/09 08:13:54;;;;;;;3.78;1.55;;;31.80;54.90;;;;;;4956631;28;20024;-47
2022/08/09 08:16:20;;;;;;;4.30;1.85;;;32.10;54.80;;;;;;4938070;28;20066;-45
2022/08/09 08:18:46;;;;;;;5.00;1.80;;;32.60;53.90;;;;;;4937787;29;20019;-48
2022/08/09 08:21:11;;;;;;;3.33;1.35;;;32.90;53.80;;;;;;4937768;29;20482;-45
2022/08/09 08:23:37;;;;;;;6.85;2.58;;;33.10;53.80;;;;;;4937600;29;20519;-45
2022/08/09 08:26:02;;;;;;;3.05;1.63;;;33.20;53.10;;;;;;4937788;29;20019;-45
2022/08/09 08:28:28;;;;;;;3.95;1.70;;;32.60;53.70;;;;;;4937593;29;20024;-46
2022/08/09 08:30:53;;;;;;;4.88;1.40;;;32.60;54.00;;;;;;4937520;29;20028;-45
2022/08/09 08:33:19;;;;;;;3.42;1.42;;;32.60;53.50;;;;;;4937603;29;20020;-45
2022/08/09 08:35:44;;;;;;;2.78;1.48;;;32.60;54.00;;;;;;4948540;28;20515;-49
2022/08/09 08:38:10;;;;;;;4.20;1.50;;;32.90;53.60;;;;;;4975957;28;20031;-50
2022/08/09 08:40:36;;;;;;;4.40;1.63;;;33.00;53.70;;;;;;4975720;28;20046;-46
2022/08/09 08:43:03;;;;;;;3.15;1.33;;;33.00;53.70;;;;;;4975418;28;20023;-51
2022/08/09 08:45:32;;;;;;;2.47;1.38;;;32.80;53.70;;;;;;4975504;28;20484;-46
2022/08/09 08:47:58;;;;;;;2.53;1.60;;;32.40;54.30;;;;;;4975589;28;20069;-47
2022/08/09 08:50:24;;;;;;;1.60;1.48;;;31.80;54.60;;;;;;4975571;28;20062;-45
2022/08/09 08:52:51;;;;;;;3.10;1.70;;;31.40;55.50;;;;;;4956582;28;20019;-46
2022/08/09 08:55:17;;;;;;;7.78;2.60;;;31.20;55.30;;;;;;4956451;28;20051;-48
2022/08/09 08:57:43;;;;;;;4.32;1.48;;;31.40;56.00;;;;;;4957167;28;20077;-47
2022/08/09 09:00:09;;;;;;;4.53;1.30;;;31.60;55.30;;;;;;4975037;28;20027;-47
2022/08/09 09:02:37;;;;;;;5.40;1.60;;;31.00;55.70;;;;;;4939674;28;20067;-49
2022/08/09 09:05:03;;;;;;;8.77;1.70;;;30.70;56.60;;;;;;4941733;29;20493;-48
2022/08/09 09:07:29;;;;;;;3.63;1.30;;;30.30;56.30;;;;;;4954036;28;20043;-45
2022/08/09 09:09:57;;;;;;;4.53;1.65;;;30.40;57.10;;;;;;4965332;28;20027;-49
2022/08/09 09:12:26;;;;;;;5.97;1.58;;;30.50;56.40;;;;;;4944401;28;20437;-45
2022/08/09 09:14:52;;;;;;;3.47;1.55;;;30.40;56.90;;;;;;4945810;28;20023;-46
2022/08/09 09:17:18;;;;;;;4.10;1.35;;;30.10;56.80;;;;;;4937538;29;20107;-47
2022/08/09 09:19:45;;;;;;;2.78;1.55;;;30.10;57.30;;;;;;4943086;29;20039;-50
2022/08/09 09:22:15;;;;;;;7.65;1.65;;;29.80;57.20;;;;;;4955395;28;20023;-51
2022/08/09 09:24:43;;;;;;;3.55;1.40;;;29.80;57.20;;;;;;4954595;28;20023;-45
2022/08/09 09:27:11;;;;;;;4.50;1.45;;;29.80;57.20;;;;;;4955649;28;20038;-48
2022/08/09 09:29:39;;;;;;;2.10;1.70;;;29.70;57.30;;;;;;4953855;28;20058;-49
2022/08/09 09:32:06;;;;;;;3.75;1.50;;;29.60;57.20;;;;;;4936965;29;20398;-49
2022/08/09 09:34:33;;;;;;;2.28;1.45;;;29.50;57.20;;;;;;4936199;29;20417;-45
2022/08/09 09:37:00;;;;;;;3.67;1.50;;;29.50;57.20;;;;;;4936347;29;20024;-44
2022/08/09 09:39:27;;;;;;;5.82;1.50;;;29.60;57.70;;;;;;4937191;29;20048;-47
2022/08/09 09:41:53;;;;;;;3.80;2.00;;;29.70;57.40;;;;;;4936881;29;20115;-48
2022/08/09 09:44:24;;;;;;;1.88;1.40;;;29.70;56.40;;;;;;4936246;29;20304;-47
2022/08/09 09:46:55;;;;;;;3.42;1.25;;;29.90;57.10;;;;;;4936284;29;20028;-47
2022/08/09 09:49:22;;;;;;;2.60;1.10;;;30.20;57.70;;;;;;4936050;29;20083;-51
2022/08/09 09:51:48;;;;;;;9.88;1.40;;;30.20;56.60;;;;;;4935982;29;20024;-45
2022/08/09 09:54:18;;;;;;;8.80;4.53;;;29.80;55.80;;;;;;4935835;29;20078;-49
2022/08/09 09:56:48;;;;;;;3.78;1.65;;;29.80;55.90;;;;;;4943606;29;20701;-50
2022/08/09 09:59:31;;;;;;;9.88;7.47;;;29.60;56.50;;;;;;4955002;28;20607;-46
2022/08/09 10:02:00;;;;;;;2.03;1.60;;;29.50;56.80;;;;;;4952617;28;20493;-45
2022/08/09 10:04:26;;;;;;;2.08;1.25;;;29.20;56.40;;;;;;4955017;28;20062;-49
2022/08/09 10:06:52;;;;;;;5.38;1.45;;;29.20;57.20;;;;;;4946345;28;20409;-46
2022/08/09 10:09:18;;;;;;;3.58;1.25;;;29.30;56.00;;;;;;4936698;29;20111;-48
2022/08/09 10:11:43;;;;;;;1.30;1.20;;;29.30;55.90;;;;;;4935596;29;20043;-48
2022/08/09 10:14:23;;;;;;;3.60;1.50;;;29.30;56.20;;;;;;4935352;29;20117;-48
2022/08/09 10:16:49;;;;;;;1.58;1.35;;;29.40;57.10;;;;;;4935711;29;20023;-49
2022/08/09 10:19:14;;;;;;;2.15;1.38;;;29.40;56.20;;;;;;4935848;29;20043;-48
2022/08/09 10:21:48;;;;;;;2.63;1.38;;;29.40;56.20;;;;;;4935524;29;20548;-48
2022/08/09 10:24:17;;;;;;;5.65;1.60;;;29.30;55.90;;;;;;4954655;29;20039;-45
2022/08/09 10:26:45;;;;;;;3.90;1.48;;;29.40;56.00;;;;;;4955496;28;20448;-49
2022/08/09 10:29:14;;;;;;;2.63;1.20;;;29.40;55.70;;;;;;4954451;28;20035;-48
2022/08/09 10:31:40;;;;;;;2.72;1.08;;;29.20;56.00;;;;;;4954491;28;20042;-48
2022/08/09 10:34:09;;;;;;;4.32;1.35;;;29.00;55.80;;;;;;4953955;28;20106;-46
2022/08/09 10:36:35;;;;;;;8.05;2.10;;;29.10;56.30;;;;;;4951761;28;20031;-46
2022/08/09 10:39:01;;;;;;;1.50;1.40;;;29.10;55.80;;;;;;4935135;29;20047;-48
2022/08/09 10:41:27;;;;;;;4.13;1.55;;;29.10;55.70;;;;;;4947361;29;20038;-46
2022/08/09 10:43:52;;;;;;;6.65;1.52;;;29.10;56.00;;;;;;4954035;28;20388;-49
2022/08/09 10:46:36;;;;;;;1.27;1.25;;;29.20;56.00;;;;;;4943998;28;20552;-52
2022/08/09 10:49:11;;;;;;;6.63;1.60;;;29.20;56.20;;;;;;4935175;29;20464;-48
2022/08/09 10:51:53;;;;;;;2.05;1.40;;;29.20;56.80;;;;;;4948913;29;20081;-50
2022/08/09 10:54:24;;;;;;;2.10;1.38;;;29.30;56.60;;;;;;4954128;28;20027;-49
2022/08/09 10:57:07;;;;;;;14.50;8.43;;;29.40;55.60;;;;;;4939374;28;20028;-47
2022/08/09 10:59:34;;;;;;;4.70;1.50;;;29.20;56.10;;;;;;4934695;29;20063;-52
2022/08/09 11:02:00;;;;;;;2.88;1.55;;;29.00;56.30;;;;;;4944689;29;20150;-49
2022/08/09 11:04:28;;;;;;;2.45;1.48;;;29.00;56.70;;;;;;4953385;28;20629;-49
2022/08/09 11:06:59;;;;;;;3.78;1.52;;;29.00;56.40;;;;;;4952260;28;20126;-49
2022/08/09 11:09:37;;;;;;;4.22;1.23;;;29.00;56.90;;;;;;4951992;28;20208;-54
2022/08/09 11:12:08;;;;;;;6.35;1.30;;;29.00;56.50;;;;;;4953470;28;20027;-48
2022/08/09 11:14:43;;;;;;;2.63;1.08;;;29.00;55.40;;;;;;4952407;28;20054;-49
2022/08/09 11:17:15;;;;;;;2.35;1.17;;;28.90;55.40;;;;;;4953911;28;20544;-50
2022/08/09 11:19:57;;;;;;;3.90;1.33;;;28.90;55.70;;;;;;4953745;28;20035;-50
2022/08/09 11:22:41;;;;;;;2.38;1.20;;;28.90;55.60;;;;;;4952967;28;20031;-48
2022/08/09 11:25:11;;;;;;;4.55;1.15;;;28.90;55.50;;;;;;4934529;29;20055;-48
2022/08/09 11:27:41;;;;;;;9.98;1.30;;;29.00;55.80;;;;;;4949457;29;20027;-51
2022/08/09 11:30:34;;;;;;;4.45;1.15;;;29.00;55.80;;;;;;4953282;28;20098;-49
2022/08/09 11:33:17;;;;;;;3.92;1.58;;;29.10;56.00;;;;;;4952244;28;20089;-51
2022/08/09 11:35:57;;;;;;;8.32;1.30;;;29.10;55.60;;;;;;4953482;28;20030;-48
2022/08/09 11:38:29;;;;;;;9.30;2.17;;;29.20;55.80;;;;;;4953088;28;20031;-51
2022/08/09 11:40:56;;;;;;;6.70;1.20;;;29.10;55.60;;;;;;4953348;28;20045;-49
2022/08/09 11:43:25;;;;;;;1.40;1.30;;;29.20;55.10;;;;;;4950613;28;20035;-48
2022/08/09 11:45:55;;;;;;;1.98;1.27;;;29.10;55.50;;;;;;4953063;28;20019;-50
2022/08/09 11:48:24;;;;;;;2.03;1.30;;;29.10;56.00;;;;;;4951355;28;20027;-48
2022/08/09 11:50:55;;;;;;;3.30;1.20;;;29.10;55.60;;;;;;4934486;29;20024;-46
2022/08/09 11:53:23;;;;;;;2.42;1.33;;;29.20;55.90;;;;;;4937184;28;20024;-50
2022/08/09 11:55:50;;;;;;;2.42;1.20;;;29.20;54.90;;;;;;4946965;28;20086;-50
2022/08/09 11:58:19;;;;;;;7.53;2.03;;;29.20;55.40;;;;;;4934082;29;20114;-50
2022/08/09 12:00:55;;;;;;;1.55;1.40;;;29.20;55.20;;;;;;4943221;29;20033;-51
2022/08/09 12:03:23;;;;;;;2.10;1.10;;;29.10;54.60;;;;;;4952816;28;20065;-48
2022/08/09 12:05:51;;;;;;;2.38;1.10;;;29.10;55.10;;;;;;4948750;28;20067;-46
2022/08/09 12:08:19;;;;;;;1.90;1.10;;;29.00;55.00;;;;;;4942416;29;20038;-46
2022/08/09 12:10:56;;;;;;;1.65;1.10;;;28.90;55.00;;;;;;4953068;28;20492;-45
2022/08/09 12:13:31;;;;;;;1.75;1.00;;;28.90;56.30;;;;;;4936231;28;20114;-48
2022/08/09 12:16:05;;;;;;;1.40;1.10;;;29.00;55.40;;;;;;4934303;29;20477;-46
2022/08/09 12:18:32;;;;;;;2.25;1.30;;;29.10;55.20;;;;;;4934358;29;20489;-46
2022/08/09 12:20:59;;;;;;;1.48;0.98;;;29.10;53.80;;;;;;4934199;29;20087;-47
2022/08/09 12:23:25;;;;;;;3.65;1.15;;;29.10;54.70;;;;;;4934584;29;20028;-48
2022/08/09 12:25:53;;;;;;;1.85;1.15;;;29.10;54.20;;;;;;4936629;29;20055;-49
2022/08/09 12:28:24;;;;;;;2.85;1.00;;;29.20;53.80;;;;;;4944571;29;20031;-47
2022/08/09 12:30:50;;;;;;;8.23;1.50;;;29.20;53.40;;;;;;4953162;28;20408;-46
2022/08/09 12:33:17;;;;;;;2.95;1.05;;;29.20;53.90;;;;;;4934498;28;20055;-46
2022/08/09 12:35:43;;;;;;;2.28;1.33;;;29.10;53.40;;;;;;4941674;28;20051;-47
2022/08/09 12:38:35;;;;;;;2.03;1.10;;;29.10;53.30;;;;;;4971549;28;20034;-49
2022/08/09 12:41:01;;;;;;;3.70;1.10;;;29.10;53.00;;;;;;4966994;28;20428;-45
2022/08/09 12:43:28;;;;;;;2.80;1.00;;;29.10;53.10;;;;;;4969442;28;20022;-47
2022/08/09 12:45:56;;;;;;;1.85;1.30;;;29.10;52.90;;;;;;4952774;28;20031;-49
2022/08/09 12:48:22;;;;;;;4.95;1.15;;;29.00;53.90;;;;;;4960189;28;20053;-48